Lake Swannanoa, New Jersey
Current Conditions -  °F | °C
As of 10:53 PM on Wednesday 22 Oct 2014 (Local Time) from KFWN Reporting Station
Light Rain Light Rain  
Wind Chill: 53°   Ceiling: 3800
Heat Index: 53°   Visibility: 10mi
Dew Point: 47°   Wind: 7mph
Humidity: 80%   Direction: 360°N
Pressure: 29.82"   Gusts: NA
Location:  41.0321°N, 74.5162°W
Report Text: KFWN 230253Z AUTO 36006KT 10SM -RA OVC038 12/08 A2982 RMK AO2 SLP099 P0002 60008 T01170083 58015
Loading
Personal Weather Stations






























Interactive Weather Map
Tropical Storm Tracking
New forecast layout! Learn more

10-Day Weather Forecast

Advertisements
Track Severe Weather on mobile